Time;durP1;ratioP1;P1;durP2;ratioP2;P2;SDS_P1;SDS_P2;PMS_P1;PMS_P2;Temp;Humidity;BMP_temperature;BMP_pressure;BME280_temperature;BME280_humidity;BME280_pressure;Samples;Min_cycle;Max_cycle;Signal;HPM_P1;HPM_P2
2021/12/13 01:17:04;;;;;;;4.20;2.50;;;;;;;7.68;100.00;101665.83;105165;1309;60878;-78
2021/12/13 01:19:54;;;;;;;3.30;2.30;;;;;;;7.69;100.00;101666.80;104804;1322;60383;-78
2021/12/13 01:22:50;;;;;;;5.40;3.30;;;;;;;7.69;100.00;101671.38;104747;1321;74382;-80
2021/12/13 01:25:44;;;;;;;4.60;3.00;;;;;;;7.70;100.00;101676.23;104780;1321;71554;-80
2021/12/13 01:28:20;;;;;;;4.40;2.80;;;;;;;7.71;100.00;101676.16;104252;1323;362794;-80
2021/12/13 01:30:56;;;;;;;7.90;3.00;;;;;;;7.71;100.00;101677.35;104609;1322;63034;-80
2021/12/13 01:36:02;;;;;;;5.80;3.60;;;;;;;7.74;100.00;101678.36;105080;1309;72721;-81
2021/12/13 01:41:17;;;;;;;4.50;3.20;;;;;;;7.77;100.00;101683.38;105362;1310;71462;-79
2021/12/13 01:43:50;;;;;;;4.50;3.20;;;;;;;7.79;100.00;101680.45;104672;1322;63780;-80
2021/12/13 01:46:20;;;;;;;7.40;3.40;;;;;;;7.79;100.00;101678.79;104749;1322;61318;-79
2021/12/13 01:48:49;;;;;;;7.20;4.00;;;;;;;7.80;100.00;101676.10;104766;1322;74144;-79
2021/12/13 01:51:26;;;;;;;5.70;3.40;;;;;;;7.80;100.00;101678.90;104379;1321;72858;-80
2021/12/13 01:54:02;;;;;;;6.90;3.80;;;;;;;7.82;100.00;101676.79;104477;1326;73653;-80
2021/12/13 01:56:44;;;;;;;6.10;3.70;;;;;;;7.83;100.00;101681.29;103962;1325;62115;-80
2021/12/13 02:09:57;;;;;;;7.30;4.60;;;;;;;7.89;100.00;101681.80;105043;1308;60854;-76
2021/12/13 02:12:43;;;;;;;9.70;5.00;;;;;;;7.92;100.00;101682.77;105148;1312;61463;-76
2021/12/13 02:17:59;;;;;;;6.20;4.00;;;;;;;7.97;100.00;101683.80;103785;1325;72469;-77
2021/12/13 02:20:33;;;;;;;6.80;4.50;;;;;;;7.98;100.00;101680.34;104138;1329;73584;-80
2021/12/13 02:23:02;;;;;;;9.20;5.70;;;;;;;7.99;100.00;101678.64;104662;1321;62454;-80
2021/12/13 02:25:31;;;;;;;6.80;4.50;;;;;;;8.00;100.00;101682.42;104381;1325;59962;-80
2021/12/13 02:28:06;;;;;;;6.70;4.30;;;;;;;8.01;100.00;101684.50;104732;1318;74054;-80
2021/12/13 02:30:42;;;;;;;7.80;4.60;;;;;;;8.02;100.00;101685.25;104653;1322;72714;-80
2021/12/13 02:33:21;;;;;;;9.10;4.90;;;;;;;8.04;100.00;101688.92;104662;1321;72892;-80
2021/12/13 02:35:55;;;;;;;7.30;4.30;;;;;;;8.05;100.00;101689.55;104743;1322;63250;-79
2021/12/13 02:38:23;;;;;;;6.50;4.60;;;;;;;8.06;100.00;101689.27;104755;1322;61305;-80
2021/12/13 02:40:53;;;;;;;6.90;4.40;;;;;;;8.08;100.00;101689.17;103776;1328;73111;-78
2021/12/13 02:43:23;;;;;;;9.00;5.10;;;;;;;8.08;100.00;101692.50;104361;1322;71449;-80
2021/12/13 02:45:55;;;;;;;7.10;5.10;;;;;;;8.08;100.00;101698.17;104568;1329;72876;-80
2021/12/13 02:48:27;;;;;;;7.60;4.50;;;;;;;8.09;100.00;101697.33;104721;1322;61920;-80
2021/12/13 02:51:04;;;;;;;7.90;4.90;;;;;;;8.10;100.00;101696.75;104725;1326;60627;-79
2021/12/13 02:53:43;;;;;;;8.40;5.00;;;;;;;8.11;100.00;101695.76;104435;1322;75246;-77
2021/12/13 02:56:16;;;;;;;7.00;4.30;;;;;;;8.13;100.00;101698.42;104578;1325;71079;-78
2021/12/13 02:58:43;;;;;;;9.90;5.70;;;;;;;8.14;100.00;101694.99;104551;1324;72861;-80
2021/12/13 03:06:15;;;;;;;9.00;5.00;;;;;;;8.19;100.00;101702.48;105394;1310;74096;-79
2021/12/13 03:08:46;;;;;;;9.30;5.40;;;;;;;8.20;100.00;101704.38;104558;1325;73837;-78
2021/12/13 03:11:24;;;;;;;9.50;5.60;;;;;;;8.21;100.00;101706.23;104608;1322;72909;-80
2021/12/13 03:13:57;;;;;;;10.20;5.50;;;;;;;8.22;100.00;101707.20;104522;1329;63471;-78
2021/12/13 03:16:30;;;;;;;10.80;5.70;;;;;;;8.20;100.00;101709.94;104661;1322;61006;-78
2021/12/13 03:19:08;;;;;;;11.70;6.60;;;;;;;8.20;100.00;101709.41;103553;1335;76407;-78
2021/12/13 03:21:49;;;;;;;11.00;6.50;;;;;;;8.21;100.00;101710.92;104664;1322;72163;-77
2021/12/13 03:32:54;;;;;;;14.00;7.70;;;;;;;8.24;100.00;101714.73;104352;1323;72669;31
2021/12/13 03:40:33;;;;;;;12.30;6.90;;;;;;;8.30;100.00;101713.12;104529;1323;59711;-76
2021/12/13 03:45:48;;;;;;;13.30;7.20;;;;;;;8.34;100.00;101713.66;103710;1321;72745;-77
2021/12/13 03:48:21;;;;;;;12.30;6.50;;;;;;;8.36;100.00;101716.84;102953;1342;72663;-80
2021/12/13 04:12:09;;;;;;;15.20;7.90;;;;;;;8.51;100.00;101737.21;103268;1324;72896;-80
2021/12/13 04:14:47;;;;;;;15.30;8.20;;;;;;;8.54;100.00;101735.75;103257;1339;72543;-80
2021/12/13 04:17:23;;;;;;;15.60;8.20;;;;;;;8.56;100.00;101741.85;103232;1342;72937;-78
2021/12/13 04:19:57;;;;;;;16.30;8.00;;;;;;;8.59;100.00;101738.99;103266;1336;62035;-79
2021/12/13 04:22:31;;;;;;;15.10;8.50;;;;;;;8.60;100.00;101739.29;103292;1343;60672;-79
2021/12/13 04:25:11;;;;;;;14.20;7.80;;;;;;;8.60;100.00;101741.19;103275;1338;75237;-78
2021/12/13 04:27:55;;;;;;;16.10;8.50;;;;;;;8.62;100.00;101741.95;103322;1335;71532;-78
2021/12/13 04:30:24;;;;;;;15.80;7.70;;;;;;;8.61;100.00;101742.67;103258;1322;72936;-78
2021/12/13 04:32:56;;;;;;;17.10;8.50;;;;;;;8.62;100.00;101742.30;103392;1336;61847;-78
2021/12/13 04:35:25;;;;;;;13.90;7.80;;;;;;;8.64;100.00;101746.13;103415;1336;60730;-78
2021/12/13 04:37:56;;;;;;;15.50;8.20;;;;;;;8.66;100.00;101749.27;103335;1342;74663;-79
2021/12/13 04:40:29;;;;;;;17.70;8.60;;;;;;;8.66;100.00;101757.25;103418;1340;71403;-80
2021/12/13 04:43:05;;;;;;;14.80;8.40;;;;;;;8.68;100.00;101759.75;103317;1342;74167;-80
2021/12/13 04:45:33;;;;;;;16.00;8.70;;;;;;;8.69;100.00;101762.14;103458;1340;62230;-80
2021/12/13 04:50:44;;;;;;;17.80;8.80;;;;;;;8.73;100.00;101763.96;104448;1323;72712;-80
2021/12/13 04:53:18;;;;;;;15.20;8.80;;;;;;;8.75;100.00;101767.16;103381;1335;71433;-81
2021/12/13 04:55:44;;;;;;;16.00;7.50;;;;;;;8.77;100.00;101774.08;103166;1340;74044;-78
2021/12/13 04:58:13;;;;;;;12.90;7.60;;;;;;;8.78;100.00;101774.52;103361;1334;61990;-78
2021/12/13 05:00:45;;;;;;;16.50;8.40;;;;;;;8.78;100.00;101775.04;103431;1339;61646;-78
2021/12/13 05:03:15;;;;;;;16.10;8.50;;;;;;;8.79;100.00;101771.94;103394;1335;73884;-80
2021/12/13 05:05:41;;;;;;;15.90;8.70;;;;;;;8.81;100.00;101771.23;103395;1339;71485;-79
2021/12/13 05:08:13;;;;;;;15.50;8.50;;;;;;;8.82;100.00;101770.27;103367;1336;72592;-80
2021/12/13 05:10:43;;;;;;;22.80;9.90;;;;;;;8.83;100.00;101771.44;103408;1337;62283;-80
2021/12/13 05:13:18;;;;;;;21.20;10.10;;;;;;;8.84;100.00;101776.83;103100;1335;61492;-78
2021/12/13 05:16:08;;;;;;;16.70;8.90;;;;;;;8.85;100.00;101776.02;103403;1336;74369;-77
2021/12/13 05:18:49;;;;;;;18.50;10.00;;;;;;;8.85;100.00;101775.83;103387;1336;71643;-78
2021/12/13 05:21:26;;;;;;;16.90;8.70;;;;;;;8.86;100.00;101774.12;103361;1336;72970;-78
2021/12/13 05:23:57;;;;;;;17.40;8.60;;;;;;;8.87;100.00;101773.52;103393;1338;62322;-78
2021/12/13 05:26:35;;;;;;;18.00;9.40;;;;;;;8.86;100.00;101770.63;103404;1336;61706;-80
2021/12/13 05:29:06;;;;;;;18.00;8.40;;;;;;;8.86;100.00;101771.02;103374;1336;73828;-80
2021/12/13 05:31:33;;;;;;;16.40;8.60;;;;;;;8.86;100.00;101773.67;103205;1339;72450;-80
2021/12/13 05:34:06;;;;;;;19.10;9.60;;;;;;;8.85;100.00;101777.44;103306;1341;74343;-80
2021/12/13 05:36:35;;;;;;;14.80;8.40;;;;;;;8.86;100.00;101775.23;103252;1338;63056;-79
2021/12/13 05:39:10;;;;;;;17.60;9.10;;;;;;;8.86;100.00;101778.59;103139;1339;61548;-80
2021/12/13 05:41:38;;;;;;;15.30;7.90;;;;;;;8.87;100.00;101778.70;103304;1342;74304;-78
2021/12/13 05:44:10;;;;;;;16.70;8.20;;;;;;;8.86;100.00;101780.80;103090;1339;72667;-79
2021/12/13 05:46:45;;;;;;;16.80;8.00;;;;;;;8.87;100.00;101785.67;103286;1324;74073;-80
2021/12/13 06:03:30;;;;;;;14.60;7.30;;;;;;;9.26;100.00;101788.69;100589;1354;60033;-78
2021/12/13 06:55:24;;;;;;;15.50;9.40;;;;;;;9.01;100.00;101834.42;103851;1329;73734;-77
2021/12/13 07:14:37;;;;;;;18.80;9.10;;;;;;;9.01;100.00;101856.27;101140;1329;131318;-73
2021/12/13 07:17:34;;;;;;;14.50;8.00;;;;;;;9.02;100.00;101860.59;100834;1335;73381;-76
2021/12/13 07:20:14;;;;;;;15.70;7.20;;;;;;;9.02;100.00;101869.09;100771;1335;72504;-75
2021/12/13 07:23:18;;;;;;;19.20;9.40;;;;;;;9.02;100.00;101871.04;100873;1335;74225;-76
2021/12/13 07:25:50;;;;;;;16.90;8.60;;;;;;;9.01;100.00;101870.76;100814;1334;62136;-75
2021/12/13 07:28:37;;;;;;;18.20;8.50;;;;;;;9.01;100.00;101877.28;100928;1335;61465;-75
2021/12/13 07:31:24;;;;;;;17.60;8.40;;;;;;;9.01;100.00;101872.67;100820;1333;74340;-77
2021/12/13 07:33:51;;;;;;;17.60;9.60;;;;;;;9.02;100.00;101870.84;100815;1334;71555;-75
2021/12/13 07:36:39;;;;;;;;;;;;;;;;;;;;;
2021/12/13 07:39:37;;;;;;;19.40;8.80;;;;;;;9.04;100.00;101873.70;100850;1336;62293;-73
2021/12/13 07:42:27;;;;;;;15.30;7.60;;;;;;;9.05;100.00;101875.50;100814;1336;60699;-75
2021/12/13 07:45:24;;;;;;;15.90;7.70;;;;;;;9.06;100.00;101876.52;100819;1334;72326;-76
2021/12/13 07:47:57;;;;;;;13.70;6.90;;;;;;;9.06;100.00;101873.16;100874;1333;71488;-76
2021/12/13 07:50:27;;;;;;;15.10;7.40;;;;;;;9.06;100.00;101877.35;100927;1334;73111;-76
2021/12/13 07:53:01;;;;;;;13.90;6.70;;;;;;;9.07;100.00;101879.43;100905;1335;63297;-77
2021/12/13 07:55:33;;;;;;;10.60;6.00;;;;;;;9.07;100.00;101879.01;100866;1336;61676;-76
2021/12/13 07:58:07;;;;;;;10.60;6.70;;;;;;;9.08;100.00;101880.88;100811;1336;74672;-76
2021/12/13 08:00:39;;;;;;;12.30;6.40;;;;;;;9.10;100.00;101884.79;100977;1333;70248;-75
2021/12/13 08:03:31;;;;;;;9.00;5.10;;;;;;;9.11;100.00;101887.35;100765;1333;72908;-74
2021/12/13 08:06:19;;;;;;;10.30;5.70;;;;;;;9.10;100.00;101892.85;100699;1337;61996;-75
2021/12/13 08:08:51;;;;;;;8.80;4.90;;;;;;;9.11;100.00;101898.63;100730;1333;61721;-75
2021/12/13 08:11:42;;;;;;;;;;;;;;;;;;;;;
2021/12/13 08:14:36;;;;;;;9.80;5.20;;;;;;;9.13;100.00;101906.04;100744;1336;72889;-76
2021/12/13 08:17:15;;;;;;;11.00;5.70;;;;;;;9.13;100.00;101910.66;100728;1337;73989;-75
2021/12/13 08:20:00;;;;;;;12.00;5.20;;;;;;;9.13;100.00;101910.14;100728;1333;62798;-75
2021/12/13 08:22:41;;;;;;;13.30;5.10;;;;;;;9.14;100.00;101911.78;100781;1336;61714;-75
2021/12/13 08:25:17;;;;;;;8.20;4.00;;;;;;;9.15;100.00;101920.84;100821;1334;74384;-75
2021/12/13 08:27:54;;;;;;;9.00;5.30;;;;;;;9.14;100.00;101919.52;100761;1334;72426;-74
2021/12/13 08:30:37;;;;;;;;;;;;;;;;;;;;;
2021/12/13 08:33:30;;;;;;;9.50;5.30;;;;;;;9.17;100.00;101927.73;100866;1333;61288;-76
2021/12/13 08:36:26;;;;;;;8.70;5.40;;;;;;;9.19;100.00;101928.48;100825;1334;60322;-74
2021/12/13 08:39:46;;;;;;;;;;;;;;;;;;;;;
2021/12/13 08:42:28;;;;;;;10.20;4.80;;;;;;;9.24;100.00;101931.21;100689;1334;72188;-76
2021/12/13 08:45:27;;;;;;;10.20;4.70;;;;;;;9.24;100.00;101927.85;100798;1336;74173;-74
2021/12/13 08:48:12;;;;;;;10.70;5.40;;;;;;;9.23;100.00;101930.55;100834;1335;62485;-76
2021/12/13 08:50:53;;;;;;;10.10;6.30;;;;;;;9.26;100.00;101936.32;100796;1334;60584;-76
2021/12/13 08:54:09;;;;;;;13.80;6.50;;;;;;;9.28;100.00;101941.44;100786;1330;73147;-75
2021/12/13 08:56:58;;;;;;;9.80;6.20;;;;;;;9.29;100.00;101942.98;100768;1334;71714;-77
2021/12/13 08:59:27;;;;;;;10.40;5.50;;;;;;;9.29;100.00;101942.91;100754;1333;72663;-75
2021/12/13 09:02:11;;;;;;;12.80;6.70;;;;;;;9.30;100.00;101947.38;100836;1333;63295;-76
2021/12/13 09:05:13;;;;;;;12.20;6.60;;;;;;;9.33;100.00;101951.36;100845;1337;60501;-76
2021/12/13 09:08:15;;;;;;;11.60;6.40;;;;;;;9.35;100.00;101951.88;100750;1334;74489;-76
2021/12/13 09:11:18;;;;;;;10.80;5.80;;;;;;;9.38;100.00;101950.96;100740;1333;70608;-77
2021/12/13 09:14:30;;;;;;;10.10;6.00;;;;;;;9.40;100.00;101952.16;100717;1333;73509;-74
2021/12/13 09:17:16;;;;;;;12.00;6.90;;;;;;;9.43;100.00;101958.53;100678;1333;63566;-76
2021/12/13 09:20:20;;;;;;;;;;;;;;;;;;;;;
2021/12/13 09:23:01;;;;;;;11.40;6.40;;;;;;;9.45;100.00;101963.25;100706;1337;73155;-76
2021/12/13 09:25:46;;;;;;;;;;;;;;;;;;;;;
2021/12/13 09:28:56;;;;;;;10.00;5.60;;;;;;;9.48;100.00;101964.19;100744;1334;73052;-77
2021/12/13 09:31:34;;;;;;;10.70;5.80;;;;;;;9.53;100.00;101968.39;100693;1332;63003;-77
2021/12/13 09:34:21;;;;;;;10.90;5.50;;;;;;;9.54;100.00;101960.45;100707;1333;59656;-77
2021/12/13 09:37:12;;;;;;;10.80;6.40;;;;;;;9.58;100.00;101963.46;100734;1333;72974;-76
2021/12/13 09:39:41;;;;;;;12.50;5.70;;;;;;;9.63;100.00;101967.62;100789;1334;71775;-78
2021/12/13 09:42:28;;;;;;;8.70;5.50;;;;;;;9.67;100.00;101966.76;100793;1333;74312;-79
2021/12/13 09:45:02;;;;;;;9.30;5.60;;;;;;;9.71;100.00;101967.99;100760;1334;62028;-79
2021/12/13 09:47:44;;;;;;;9.10;5.10;;;;;;;9.72;100.00;101966.48;100839;1333;63178;-78
2021/12/13 09:50:49;;;;;;;;;;;;;;;;;;;;;
2021/12/13 09:54:18;;;;;;;9.40;5.60;;;;;;;9.77;100.00;101972.02;100693;1334;72695;-77
2021/12/13 09:57:10;;;;;;;9.80;5.70;;;;;;;9.81;100.00;101974.87;100711;1336;72868;-77
2021/12/13 09:59:57;;;;;;;7.70;5.20;;;;;;;9.84;100.00;101968.06;100685;1333;64952;-76
2021/12/13 10:02:52;;;;;;;10.50;5.60;;;;;;;9.86;100.00;101972.64;100821;1334;60936;-80
2021/12/13 10:05:30;;;;;;;10.60;6.00;;;;;;;9.88;100.00;101968.73;100742;1333;73887;-78
2021/12/13 10:08:10;;;;;;;9.40;5.30;;;;;;;9.92;100.00;101966.11;100818;1331;71634;-77
2021/12/13 10:11:09;;;;;;;9.60;4.80;;;;;;;9.93;100.00;101959.98;100730;1333;74048;-79
2021/12/13 10:14:18;;;;;;;9.60;6.00;;;;;;;9.93;100.00;101955.56;100895;1333;61747;-78
2021/12/13 10:17:01;;;;;;;10.00;6.40;;;;;;;9.92;99.50;101954.45;100703;1333;60579;-78
2021/12/13 10:19:43;;;;;;;11.70;7.60;;;;;;;9.93;99.71;101949.23;100884;1333;72799;-78
2021/12/13 10:22:30;;;;;;;11.20;7.20;;;;;;;9.94;99.54;101956.35;100965;1327;72750;-78
2021/12/13 10:25:25;;;;;;;15.10;8.60;;;;;;;9.94;99.29;101955.12;100799;1333;74219;-77
2021/12/13 10:28:03;;;;;;;12.20;8.00;;;;;;;9.95;99.25;101959.98;100699;1333;62171;-75
2021/12/13 10:30:39;;;;;;;14.90;8.50;;;;;;;9.94;99.00;101959.39;100751;1333;62650;-77
2021/12/13 10:33:11;;;;;;;17.20;8.70;;;;;;;9.94;99.14;101959.52;100773;1336;73558;-77
2021/12/13 10:35:55;;;;;;;;;;;;;;;;;;;;;
2021/12/13 10:38:33;;;;;;;15.50;8.70;;;;;;;9.93;98.99;101962.60;101225;1334;74520;-79
2021/12/13 10:41:08;;;;;;;16.40;8.20;;;;;;;9.94;98.69;101963.80;100990;1330;61854;-76
2021/12/13 10:43:49;;;;;;;13.00;7.60;;;;;;;9.93;98.75;101961.76;100885;1333;61772;-79
2021/12/13 10:46:26;;;;;;;16.30;7.90;;;;;;;9.93;98.47;101954.54;100937;1333;74296;-81
2021/12/13 10:49:04;;;;;;;13.20;7.60;;;;;;;9.92;98.57;101952.64;101051;1337;71195;-79
2021/12/13 10:51:36;;;;;;;16.60;9.50;;;;;;;9.92;98.08;101952.30;100876;1333;72844;-81
2021/12/13 10:54:17;;;;;;;13.20;7.70;;;;;;;9.94;98.93;101949.48;100849;1333;61542;-77
2021/12/13 10:56:55;;;;;;;12.40;7.30;;;;;;;9.98;98.79;101951.44;100917;1333;60629;-78
2021/12/13 10:59:25;;;;;;;13.30;7.70;;;;;;;10.01;98.31;101953.42;101132;1333;74497;-79
2021/12/13 11:01:57;;;;;;;10.50;6.60;;;;;;;10.05;98.69;101953.28;100903;1333;72630;-78
2021/12/13 11:04:38;;;;;;;13.40;7.00;;;;;;;10.07;98.01;101953.99;100854;1334;74135;-79
2021/12/13 11:07:08;;;;;;;11.60;7.90;;;;;;;10.07;97.12;101950.92;101027;1334;63428;-78
2021/12/13 11:09:39;;;;;;;11.30;6.80;;;;;;;10.06;96.63;101948.50;100966;1339;60700;-79
2021/12/13 11:12:09;;;;;;;11.60;5.60;;;;;;;10.07;96.08;101950.77;100964;1333;74254;-77
2021/12/13 11:14:38;;;;;;;13.40;7.50;;;;;;;10.08;96.54;101953.46;100883;1333;71704;-78
2021/12/13 11:17:10;;;;;;;12.80;7.10;;;;;;;10.10;96.51;101957.05;101065;1334;72011;-76
2021/12/13 11:19:50;;;;;;;14.40;6.80;;;;;;;10.10;96.15;101958.96;101016;1334;62059;-78
2021/12/13 11:22:28;;;;;;;11.90;8.00;;;;;;;10.04;95.44;101960.01;100959;1333;60825;-77
2021/12/13 11:25:00;;;;;;;13.00;6.60;;;;;;;9.99;94.88;101960.66;101509;1333;74361;-77
2021/12/13 11:27:31;;;;;;;14.20;6.40;;;;;;;9.95;94.89;101956.95;101201;1333;71719;-79
2021/12/13 11:30:01;;;;;;;15.50;8.60;;;;;;;9.91;94.70;101956.63;101612;1323;73251;-77
2021/12/13 11:32:56;;;;;;;13.80;7.40;;;;;;;9.90;95.33;101957.46;101185;1339;62286;-79
2021/12/13 11:35:45;;;;;;;;;;;;;;;9.88;94.94;101958.55;101449;1337;60513;-80
2021/12/13 11:38:41;;;;;;;13.90;8.60;;;;;;;9.86;95.20;101957.62;101638;1320;74784;-80
2021/12/13 11:41:43;;;;;;;15.80;8.90;;;;;;;9.84;95.49;101954.44;101395;1332;71604;-79
2021/12/13 11:44:24;;;;;;;19.60;8.90;;;;;;;9.83;95.65;101954.05;101418;1333;73070;-81
2021/12/13 11:47:19;;;;;;;16.60;8.20;;;;;;;9.81;95.67;101953.13;101350;1333;62392;-80
2021/12/13 11:50:17;;;;;;;16.90;8.90;;;;;;;9.77;95.70;101954.02;101092;1333;60441;-81
2021/12/13 11:53:13;;;;;;;14.70;9.70;;;;;;;9.73;95.99;101947.97;101185;1332;75325;-80
2021/12/13 11:56:10;;;;;;;16.90;10.70;;;;;;;9.69;95.83;101951.85;101002;1336;72815;-76
2021/12/13 11:58:59;;;;;;;16.10;8.70;;;;;;;9.64;95.96;101948.08;101033;1334;72938;-78
2021/12/13 12:02:11;;;;;;;19.40;9.80;;;;;;;9.61;96.18;101944.53;100808;1332;62222;-78
2021/12/13 12:05:23;;;;;;;16.10;9.30;;;;;;;9.56;95.86;101944.21;100753;1333;60457;-77
2021/12/13 12:08:47;;;;;;;19.10;9.40;;;;;;;9.53;96.10;101943.98;100672;1334;73896;-77
2021/12/13 12:12:07;;;;;;;14.30;7.80;;;;;;;9.51;95.87;101944.32;100899;1334;72494;-78
2021/12/13 12:14:44;;;;;;;18.60;9.00;;;;;;;9.48;96.06;101945.34;100810;1334;73227;-79
2021/12/13 12:17:14;;;;;;;19.80;10.60;;;;;;;9.47;96.32;101943.27;100790;1337;62605;-78
2021/12/13 12:20:01;;;;;;;17.80;9.60;;;;;;;9.46;96.39;101942.49;100812;1332;60633;-79
2021/12/13 12:22:50;;;;;;;20.60;9.50;;;;;;;9.44;96.04;101942.10;100856;1334;74605;-78
2021/12/13 12:25:32;;;;;;;17.10;9.20;;;;;;;9.43;95.98;101943.45;100751;1331;70968;-77
2021/12/13 12:28:15;;;;;;;16.10;9.70;;;;;;;9.41;95.86;101942.23;100600;1334;74057;-75
2021/12/13 12:30:52;;;;;;;19.50;11.40;;;;;;;9.38;96.03;101939.05;100898;1333;60657;-78
2021/12/13 12:33:37;;;;;;;18.30;10.20;;;;;;;9.36;96.28;101941.90;100792;1333;61703;-77
2021/12/13 12:36:42;;;;;;;17.60;10.00;;;;;;;9.34;96.45;101947.38;100798;1333;75359;-76
2021/12/13 12:39:53;;;;;;;19.20;9.90;;;;;;;9.31;96.26;101947.66;100687;1332;71419;-77
2021/12/13 12:42:54;;;;;;;18.90;10.10;;;;;;;9.30;96.68;101952.75;100620;1333;73031;-79
2021/12/13 12:45:30;;;;;;;19.60;10.90;;;;;;;9.27;96.65;101957.40;100588;1336;62298;-78
2021/12/13 12:48:05;;;;;;;20.50;11.70;;;;;;;9.25;96.59;101954.25;100808;1332;61791;-77
2021/12/13 12:50:40;;;;;;;25.20;12.20;;;;;;;9.23;96.67;101951.89;100788;1332;73870;-78
2021/12/13 12:53:23;;;;;;;19.80;9.90;;;;;;;9.22;96.90;101955.08;100731;1332;71696;-77
2021/12/13 12:55:56;;;;;;;26.60;12.30;;;;;;;9.19;96.89;101954.89;100753;1336;72935;-75
2021/12/13 12:58:32;;;;;;;23.90;12.60;;;;;;;9.16;96.78;101951.45;100897;1333;61684;-77
2021/12/13 13:01:15;;;;;;;26.60;12.30;;;;;;;9.13;96.83;101952.83;100911;1337;60735;-77
2021/12/13 13:03:43;;;;;;;22.00;11.80;;;;;;;9.10;97.00;101956.56;100926;1332;74126;-77
2021/12/13 13:06:16;;;;;;;25.10;12.10;;;;;;;9.09;96.88;101951.78;100778;1333;72440;-75
2021/12/13 13:08:48;;;;;;;28.60;13.10;;;;;;;9.07;97.09;101950.20;100851;1333;73002;-77
2021/12/13 13:11:27;;;;;;;22.90;12.20;;;;;;;9.05;96.93;101948.05;100842;1336;63414;-77
2021/12/13 13:13:59;;;;;;;25.30;12.40;;;;;;;9.02;96.91;101950.91;100821;1335;61703;-77
2021/12/13 13:16:29;;;;;;;20.80;12.00;;;;;;;9.01;97.10;101946.29;100757;1336;74245;-76
2021/12/13 13:19:03;;;;;;;21.00;11.80;;;;;;;8.98;97.20;101951.27;100817;1333;71390;-77
2021/12/13 13:21:50;;;;;;;;;;;;;;;;;;;;;
2021/12/13 13:24:19;;;;;;;23.70;12.00;;;;;;;8.96;97.31;101949.15;100939;1333;61309;-78
2021/12/13 13:26:48;;;;;;;27.20;12.90;;;;;;;8.95;97.54;101949.39;100996;1330;61381;-77
2021/12/13 13:29:30;;;;;;;;;;;;;;;;;;;;;
2021/12/13 13:32:00;;;;;;;27.20;12.80;;;;;;;8.95;97.34;101948.72;101289;1333;72701;-78
2021/12/13 13:34:36;;;;;;;22.50;12.50;;;;;;;8.95;97.54;101946.93;100824;1332;74168;-79
2021/12/13 13:37:19;;;;;;;23.90;12.50;;;;;;;8.94;97.35;101948.79;101035;1333;62281;-80
2021/12/13 13:40:13;;;;;;;28.10;12.70;;;;;;;8.94;97.39;101951.79;100840;1333;61837;-78
2021/12/13 13:43:13;;;;;;;25.00;11.90;;;;;;;8.94;97.61;101951.94;100830;1336;74467;-79
2021/12/13 13:46:09;;;;;;;26.20;12.40;;;;;;;8.94;97.40;101952.64;100902;1336;72451;-79
2021/12/13 13:48:40;;;;;;;23.30;12.10;;;;;;;8.93;97.48;101954.16;101271;1333;71923;-77
2021/12/13 13:51:12;;;;;;;23.50;12.50;;;;;;;8.93;97.38;101954.38;100871;1339;63321;-76
2021/12/13 13:53:53;;;;;;;23.10;12.10;;;;;;;8.92;97.65;101953.16;100810;1332;60638;-75
2021/12/13 13:56:25;;;;;;;25.20;12.60;;;;;;;8.92;97.75;101958.00;101677;1338;74305;-74
2021/12/13 13:59:04;;;;;;;27.10;12.50;;;;;;;8.91;97.74;101962.15;100774;1333;71559;-74
2021/12/13 14:02:04;;;;;;;25.60;12.60;;;;;;;8.89;97.74;101961.92;100747;1332;74137;-74
2021/12/13 14:04:36;;;;;;;25.20;12.00;;;;;;;8.87;97.47;101969.35;100371;1333;60655;-74
2021/12/13 14:07:17;;;;;;;25.00;12.70;;;;;;;8.87;97.66;101967.94;100696;1333;60435;-75
2021/12/13 14:09:49;;;;;;;26.00;13.30;;;;;;;8.86;97.86;101968.41;100703;1333;74103;-75
2021/12/13 14:12:32;;;;;;;23.40;12.60;;;;;;;8.85;97.62;101967.45;100751;1333;72515;-76
2021/12/13 14:15:08;;;;;;;25.30;12.70;;;;;;;8.82;97.11;101966.96;100763;1333;73054;-75
2021/12/13 14:17:34;;;;;;;29.40;13.40;;;;;;;8.82;97.30;101963.09;100769;1333;62387;-75
2021/12/13 14:20:19;;;;;;;24.00;11.90;;;;;;;8.81;97.50;101964.39;100733;1332;61915;-76
2021/12/13 14:22:48;;;;;;;24.30;11.90;;;;;;;8.81;97.49;101967.40;100813;1333;75385;-75
2021/12/13 14:25:35;;;;;;;29.00;14.30;;;;;;;8.81;97.13;101971.14;100763;1333;72639;-76
2021/12/13 14:28:06;;;;;;;22.90;12.40;;;;;;;8.81;97.10;101970.61;100694;1333;74204;-75
2021/12/13 14:30:41;;;;;;;26.80;11.90;;;;;;;8.78;97.22;101975.88;100730;1333;62262;-75
2021/12/13 14:33:35;;;;;;;20.30;11.40;;;;;;;8.78;97.02;101978.75;100680;1333;60691;-75
2021/12/13 14:36:14;;;;;;;23.30;12.50;;;;;;;8.76;97.20;101977.71;100809;1336;74517;-76
2021/12/13 14:38:51;;;;;;;23.70;12.40;;;;;;;8.76;97.37;101977.02;100741;1333;71681;-77
2021/12/13 14:41:21;;;;;;;22.50;12.80;;;;;;;8.75;97.20;101981.27;100727;1333;74011;-75
2021/12/13 14:43:55;;;;;;;24.50;12.80;;;;;;;8.75;97.34;101980.80;100725;1332;62379;-76
2021/12/13 14:46:29;;;;;;;21.60;12.40;;;;;;;8.74;97.34;101979.15;100719;1333;62008;-75
2021/12/13 14:49:11;;;;;;;26.40;12.70;;;;;;;8.73;97.24;101980.58;100816;1333;75156;-74
2021/12/13 14:52:06;;;;;;;18.70;8.80;;;;;;;8.71;97.39;101979.89;100744;1333;71497;-76
2021/12/13 14:54:36;;;;;;;26.20;12.20;;;;;;;8.70;97.16;101983.00;101482;1336;73121;-75
2021/12/13 14:57:07;;;;;;;23.20;13.10;;;;;;;8.70;97.48;101982.64;102382;1333;63040;-74
2021/12/13 14:59:44;;;;;;;21.90;12.20;;;;;;;8.70;97.51;101979.46;101252;1330;61648;-75
2021/12/13 15:02:34;;;;;;;24.20;12.50;;;;;;;8.69;97.77;101980.80;101204;1333;74214;-74
2021/12/13 15:05:05;;;;;;;23.00;12.10;;;;;;;8.68;97.21;101982.12;101905;1332;71461;-75
2021/12/13 15:07:38;;;;;;;25.00;12.80;;;;;;;8.68;97.58;101980.37;100685;1337;72963;-76
2021/12/13 15:10:19;;;;;;;23.10;12.30;;;;;;;8.68;97.47;101978.25;100755;1333;62262;-75
2021/12/13 15:12:49;;;;;;;18.90;11.60;;;;;;;8.67;97.54;101977.44;100701;1332;60503;-73
2021/12/13 15:15:35;;;;;;;23.90;13.20;;;;;;;8.65;97.58;101978.30;100637;1333;73656;-76
2021/12/13 15:18:08;;;;;;;25.20;13.20;;;;;;;8.65;97.76;101979.76;100702;1332;72637;-76
2021/12/13 15:20:43;;;;;;;21.70;12.50;;;;;;;8.64;97.53;101978.73;100619;1332;74046;-77
2021/12/13 15:23:17;;;;;;;;;;;;;;;8.62;97.57;101980.34;100659;1333;61753;-75
2021/12/13 15:25:50;;;;;;;24.10;11.70;;;;;;;8.60;97.65;101976.98;100723;1333;60631;-72
2021/12/13 15:28:25;;;;;;;25.90;12.80;;;;;;;8.58;97.77;101975.91;100707;1332;75616;-74
2021/12/13 15:31:04;;;;;;;22.50;11.40;;;;;;;8.54;97.56;101976.36;100616;1332;70496;-74
2021/12/13 15:33:35;;;;;;;21.20;10.60;;;;;;;8.53;97.74;101980.55;100683;1331;72632;-76
2021/12/13 15:36:04;;;;;;;19.80;10.90;;;;;;;8.51;97.72;101981.93;100559;1336;63489;-74
2021/12/13 15:38:31;;;;;;;22.00;11.00;;;;;;;8.49;98.00;101981.73;100633;1332;61520;-76
2021/12/13 15:41:00;;;;;;;23.50;12.00;;;;;;;8.48;97.85;101984.84;100573;1332;74143;-75
2021/12/13 15:43:53;;;;;;;21.70;12.10;;;;;;;8.47;97.88;101983.81;100781;1333;72478;-77
2021/12/13 15:46:28;;;;;;;22.60;11.80;;;;;;;8.47;97.97;101988.79;100684;1332;72804;-76
2021/12/13 15:49:29;;;;;;;22.60;12.30;;;;;;;8.47;98.10;101986.31;100706;1332;63278;-76
2021/12/13 15:52:12;;;;;;;22.60;12.90;;;;;;;8.47;98.17;101980.71;100632;1333;61714;-74
2021/12/13 15:54:52;;;;;;;19.60;11.00;;;;;;;8.48;98.09;101976.74;100547;1332;75411;-74
2021/12/13 15:57:34;;;;;;;22.10;11.70;;;;;;;8.49;97.81;101976.66;100503;1332;72483;-76
2021/12/13 16:00:12;;;;;;;24.20;12.70;;;;;;;8.49;97.98;101975.08;100668;1333;72778;-75
2021/12/13 16:03:01;;;;;;;19.90;11.20;;;;;;;8.49;97.92;101975.44;100718;1333;63420;-74
2021/12/13 16:05:27;;;;;;;20.70;12.00;;;;;;;8.49;97.78;101979.81;100705;1333;60706;-77